Time;durP1;ratioP1;P1;durP2;ratioP2;P2;SDS_P1;SDS_P2;PMS_P1;PMS_P2;Temp;Humidity;BMP_temperature;BMP_pressure;BME280_temperature;BME280_humidity;BME280_pressure;Samples;Min_cycle;Max_cycle;Signal;HPM_P1;HPM_P2
2021/11/19 00:01:55;;;;;;;38.65;16.67;;;;;;;7.12;83.15;97680.41;5087059;28;20051;-64
2021/11/19 00:04:23;;;;;;;35.05;15.55;;;;;;;7.55;84.11;97738.84;5086766;28;20059;-65
2021/11/19 00:06:51;;;;;;;33.10;12.82;;;;;;;7.58;83.50;97743.69;5086767;28;20419;-64
2021/11/19 00:09:18;;;;;;;47.95;21.05;;;;;;;6.96;83.74;97660.09;5086944;28;20058;-64
2021/11/19 00:11:48;;;;;;;34.72;16.27;;;;;;;7.23;83.72;97684.41;5073651;28;20056;-64
2021/11/19 00:14:15;;;;;;;29.52;13.30;;;;;;;7.49;83.91;97744.91;5065175;28;20064;-64
2021/11/19 00:16:45;;;;;;;28.83;13.00;;;;;;;7.35;84.53;97717.56;5066987;28;20075;-63
2021/11/19 00:19:13;;;;;;;25.08;12.38;;;;;;;7.56;84.29;97745.97;5066395;28;20044;-64
2021/11/19 00:21:42;;;;;;;37.25;15.27;;;;;;;7.62;83.23;97739.13;5064769;28;20056;-65
2021/11/19 00:24:10;;;;;;;38.50;17.38;;;;;;;7.08;83.17;97662.91;5064682;28;20118;-63
2021/11/19 00:26:39;;;;;;;45.38;20.75;;;;;;;7.82;82.82;97742.22;5066142;28;20044;-64
2021/11/19 00:29:07;;;;;;;25.77;10.55;;;;;;;7.90;81.78;97755.16;5066075;28;20687;-63
2021/11/19 00:31:35;;;;;;;19.85;9.70;;;;;;;7.97;80.97;97744.38;5065798;28;20135;-64
2021/11/19 00:34:02;;;;;;;24.63;10.35;;;;;;;8.00;80.92;97743.72;5066114;28;20109;-63
2021/11/19 00:36:32;;;;;;;25.17;11.00;;;;;;;7.68;79.88;97682.63;5064771;28;20439;-63
2021/11/19 00:39:00;;;;;;;30.02;13.27;;;;;;;8.04;79.95;97739.16;5065271;28;20052;-63
2021/11/19 00:41:28;;;;;;;27.60;11.48;;;;;;;8.05;81.08;97751.78;5064221;28;20049;-66
2021/11/19 00:43:56;;;;;;;24.05;12.27;;;;;;;7.94;82.37;97717.47;5066040;28;20257;-62
2021/11/19 00:46:23;;;;;;;23.55;9.93;;;;;;;7.84;81.19;97707.66;5066604;28;20063;-63
2021/11/19 00:48:49;;;;;;;20.80;9.70;;;;;;;8.19;80.79;97752.34;5065758;28;20442;-64
2021/11/19 00:51:21;;;;;;;19.83;9.70;;;;;;;8.05;80.06;97718.69;5064316;28;20056;-64
2021/11/19 00:53:50;;;;;;;21.70;9.02;;;;;;;8.17;80.15;97743.59;5065798;28;20056;-64
2021/11/19 00:56:20;;;;;;;19.67;9.13;;;;;;;7.97;79.29;97700.25;5065765;28;20148;-64
2021/11/19 00:58:49;;;;;;;19.73;8.68;;;;;;;8.26;79.25;97744.34;5066124;28;20049;-64
2021/11/19 01:01:21;;;;;;;18.13;7.97;;;;;;;8.24;79.18;97732.81;5065817;28;20048;-64
2021/11/19 01:03:48;;;;;;;23.33;8.82;;;;;;;7.95;79.57;97680.47;5065075;28;20057;-65
2021/11/19 01:06:15;;;;;;;18.38;8.70;;;;;;;8.23;79.22;97720.19;5066172;28;20056;-64
2021/11/19 01:08:43;;;;;;;24.65;9.00;;;;;;;8.30;78.98;97740.56;5065600;28;20052;-64
2021/11/19 01:11:13;;;;;;;76.90;26.17;;;;;;;8.04;77.62;97672.94;5072802;28;20044;-64
2021/11/19 01:13:43;;;;;;;27.45;11.07;;;;;;;7.97;77.43;97650.59;5085935;28;20048;-63
2021/11/19 01:16:18;;;;;;;77.25;28.27;;;;;;;7.76;77.47;97616.72;5084602;28;20139;-63
2021/11/19 01:18:54;;;;;;;22.65;9.93;;;;;;;7.93;79.16;97671.72;5084532;28;20059;-65
2021/11/19 01:21:31;;;;;;;23.90;8.48;;;;;;;8.33;80.11;97736.34;5085470;28;20044;-64
2021/11/19 01:24:00;;;;;;;22.88;10.05;;;;;;;8.19;79.91;97738.53;5085114;28;20051;-64
2021/11/19 01:26:33;;;;;;;23.20;10.15;;;;;;;8.10;80.12;97737.78;5085626;28;20073;-64
2021/11/19 01:29:03;;;;;;;28.33;10.80;;;;;;;7.98;80.93;97743.25;5084095;28;20061;-64
2021/11/19 01:31:37;;;;;;;28.73;11.77;;;;;;;7.93;81.06;97732.41;5085131;28;20048;-65
2021/11/19 01:34:04;;;;;;;23.75;10.35;;;;;;;7.93;81.31;97732.41;5085549;28;20051;-63
2021/11/19 01:36:31;;;;;;;27.48;12.27;;;;;;;7.92;81.63;97736.31;5085405;28;20051;-64
2021/11/19 01:38:58;;;;;;;24.23;11.00;;;;;;;7.74;83.00;97725.41;5083520;28;20052;-63
2021/11/19 01:41:35;;;;;;;25.13;10.55;;;;;;;7.80;82.75;97728.78;5085408;28;20522;-62
2021/11/19 01:44:17;;;;;;;26.45;11.90;;;;;;;7.55;82.33;97683.72;5085467;28;20044;-62
2021/11/19 01:46:46;;;;;;;82.70;38.15;;;;;;;7.82;82.38;97703.63;5085050;28;20062;-63
2021/11/19 01:49:13;;;;;;;97.88;39.30;;;;;;;7.64;80.89;97676.19;5084669;28;20062;-62
2021/11/19 01:52:03;;;;;;;30.15;13.25;;;;;;;8.08;80.79;97729.06;5084967;28;20091;-63
2021/11/19 01:54:50;;;;;;;27.83;12.02;;;;;;;7.39;84.65;97724.03;5084989;28;20056;-62
2021/11/19 01:57:24;;;;;;;25.17;10.90;;;;;;;7.31;86.49;97727.63;5084817;28;20044;-63
2021/11/19 01:59:54;;;;;;;24.88;11.20;;;;;;;7.43;85.67;97724.97;5084454;28;20404;-62
2021/11/19 02:02:31;;;;;;;23.80;10.30;;;;;;;7.49;85.01;97729.13;5084281;28;20052;-63
2021/11/19 02:05:05;;;;;;;24.20;10.65;;;;;;;7.58;84.04;97732.66;5084835;28;20068;-63
2021/11/19 02:07:44;;;;;;;20.77;10.30;;;;;;;6.84;86.04;97690.28;5082875;28;20044;-63
2021/11/19 02:10:48;;;;;;;34.58;12.10;;;;;;;7.27;86.67;97710.13;5084243;28;20138;-63
2021/11/19 02:13:24;;;;;;;35.40;11.30;;;;;;;7.57;85.35;97725.53;5042911;28;20057;-63
2021/11/19 02:15:53;;;;;;;49.10;13.55;;;;;;;7.68;85.32;97723.19;5043032;28;20053;-63
2021/11/19 02:18:57;;;;;;;42.38;13.07;;;;;;;7.60;85.37;97718.56;5044259;28;20060;-63
2021/11/19 02:21:39;;;;;;;26.23;9.50;;;;;;;7.63;84.99;97723.38;5044170;28;20131;-63
2021/11/19 02:24:12;;;;;;;21.20;10.48;;;;;;;7.67;84.14;97719.63;5043955;28;20049;-64
2021/11/19 02:26:48;;;;;;;27.90;10.65;;;;;;;7.60;84.71;97735.09;5044347;28;20537;-63
2021/11/19 02:29:15;;;;;;;28.25;11.52;;;;;;;7.47;85.18;97698.38;5044165;28;20504;-63
2021/11/19 02:31:56;;;;;;;26.27;12.70;;;;;;;7.66;85.21;97711.69;5044312;28;20049;-62
2021/11/19 02:34:29;;;;;;;30.73;13.88;;;;;;;7.72;85.97;97708.41;5042717;28;20123;-62
2021/11/19 02:37:05;;;;;;;34.00;13.13;;;;;;;7.78;84.57;97713.72;5043911;28;20045;-63
2021/11/19 02:39:39;;;;;;;38.08;12.13;;;;;;;7.55;85.42;97716.81;5043974;28;20068;-63
2021/11/19 02:42:15;;;;;;;24.00;10.00;;;;;;;7.40;85.74;97714.63;5042279;28;20045;-63
2021/11/19 02:44:45;;;;;;;24.77;11.07;;;;;;;6.98;85.01;97657.81;5043726;28;20045;-62
2021/11/19 02:47:18;;;;;;;26.80;11.35;;;;;;;7.20;85.15;97701.59;5044012;28;20057;-63
2021/11/19 02:49:45;;;;;;;26.58;11.25;;;;;;;7.30;85.79;97692.16;5043471;28;20071;-63
2021/11/19 02:52:37;;;;;;;29.23;12.20;;;;;;;7.43;84.01;97708.44;5042350;28;20049;-64
2021/11/19 02:55:11;;;;;;;34.42;11.95;;;;;;;7.30;84.49;97698.44;5043873;28;20143;-63
2021/11/19 02:57:38;;;;;;;28.02;11.27;;;;;;;7.12;86.92;97707.97;5043573;28;20076;-63
2021/11/19 03:00:12;;;;;;;25.33;11.00;;;;;;;6.88;85.62;97657.34;5043545;28;20048;-63
2021/11/19 03:02:39;;;;;;;23.42;10.82;;;;;;;7.31;85.23;97716.63;5041961;28;20065;-63
2021/11/19 03:05:14;;;;;;;29.85;13.90;;;;;;;7.41;85.71;97716.22;5041743;28;20106;-63
2021/11/19 03:07:41;;;;;;;29.23;11.50;;;;;;;7.45;86.11;97714.41;5043258;28;20053;-64
2021/11/19 03:10:26;;;;;;;24.75;10.40;;;;;;;7.37;85.22;97709.78;5043680;28;20049;-64
2021/11/19 03:12:54;;;;;;;30.08;11.65;;;;;;;7.51;84.93;97715.84;5063154;28;20546;-64
2021/11/19 03:15:38;;;;;;;26.88;10.98;;;;;;;7.38;83.67;97697.59;5061925;28;20052;-63
2021/11/19 03:18:06;;;;;;;25.85;10.98;;;;;;;7.24;85.49;97699.00;5062044;28;20478;-63
2021/11/19 03:20:33;;;;;;;29.40;12.23;;;;;;;6.79;88.68;97714.41;5061529;28;20062;-64
2021/11/19 03:23:00;;;;;;;24.08;10.50;;;;;;;6.95;88.98;97707.22;5062230;28;20049;-63
2021/11/19 03:25:30;;;;;;;23.75;10.60;;;;;;;7.20;87.95;97715.38;5063517;28;20075;-63
2021/11/19 03:27:58;;;;;;;24.30;10.27;;;;;;;7.12;86.51;97701.63;5065480;28;20079;-63
2021/11/19 03:30:27;;;;;;;27.65;11.43;;;;;;;6.80;86.46;97644.44;5067461;28;20053;-64
2021/11/19 03:32:54;;;;;;;27.10;9.50;;;;;;;7.37;85.96;97715.28;5066167;28;20052;-63
2021/11/19 03:35:24;;;;;;;23.98;11.02;;;;;;;7.47;85.49;97720.41;5067469;28;20058;-63
2021/11/19 03:37:53;;;;;;;26.02;10.55;;;;;;;7.62;84.20;97717.06;5067136;28;20054;-63
2021/11/19 03:40:24;;;;;;;30.17;13.50;;;;;;;7.34;84.36;97666.34;5065771;28;20516;-63
2021/11/19 03:42:53;;;;;;;29.33;12.13;;;;;;;7.76;84.58;97710.50;5067393;28;20048;-64
2021/11/19 03:45:25;;;;;;;28.02;11.05;;;;;;;7.82;85.01;97709.97;5065907;28;20063;-63
2021/11/19 03:47:53;;;;;;;22.63;9.70;;;;;;;7.80;83.18;97700.38;5066889;28;20049;-63
2021/11/19 03:50:29;;;;;;;21.92;9.65;;;;;;;7.79;83.04;97704.31;5066075;28;20102;-63
2021/11/19 03:53:16;;;;;;;23.55;8.95;;;;;;;7.98;80.82;97701.88;5065565;28;20059;-63
2021/11/19 03:55:52;;;;;;;39.75;15.45;;;;;;;6.96;78.67;97524.31;5065188;28;20052;-64
2021/11/19 03:58:24;;;;;;;22.33;8.98;;;;;;;8.09;77.35;97694.81;5066860;28;20061;-64
2021/11/19 04:01:01;;;;;;;14.20;6.50;;;;;;;8.23;76.82;97703.63;5066854;28;20060;-63
2021/11/19 04:03:28;;;;;;;14.70;7.03;;;;;;;8.15;77.09;97708.06;5065660;28;20059;-65
2021/11/19 04:05:55;;;;;;;15.43;6.03;;;;;;;8.21;77.01;97711.41;5065110;28;20045;-63
2021/11/19 04:08:22;;;;;;;12.80;6.57;;;;;;;8.26;76.67;97700.19;5067140;28;20048;-63
2021/11/19 04:10:52;;;;;;;17.33;6.63;;;;;;;8.27;76.28;97704.53;5069024;28;20475;-63
2021/11/19 04:13:19;;;;;;;20.10;7.45;;;;;;;8.12;76.18;97702.41;5086619;28;20056;-63
2021/11/19 04:15:52;;;;;;;13.50;6.20;;;;;;;7.98;75.10;97657.75;5085104;28;20066;-62
2021/11/19 04:18:20;;;;;;;14.70;6.57;;;;;;;8.29;75.82;97699.50;5085368;28;20101;-63
2021/11/19 04:20:49;;;;;;;17.25;6.05;;;;;;;8.29;75.58;97702.25;5085319;28;20058;-63
2021/11/19 04:23:17;;;;;;;12.25;5.70;;;;;;;8.27;74.88;97704.53;5085226;28;20051;-64
2021/11/19 04:25:45;;;;;;;14.05;5.82;;;;;;;7.87;74.67;97662.88;5085391;28;20052;-63
2021/11/19 04:28:13;;;;;;;10.77;5.20;;;;;;;8.21;75.45;97705.88;5084946;28;20321;-62
2021/11/19 04:30:43;;;;;;;11.15;4.82;;;;;;;8.30;74.79;97699.16;5085308;28;20138;-63
2021/11/19 04:33:11;;;;;;;14.43;4.68;;;;;;;8.34;75.14;97715.84;5086361;28;20052;-63
2021/11/19 04:35:37;;;;;;;12.68;5.45;;;;;;;7.69;75.86;97667.72;5086787;28;20051;-63
2021/11/19 04:38:05;;;;;;;9.38;4.80;;;;;;;8.36;75.45;97702.53;5085443;28;20044;-63
2021/11/19 04:40:34;;;;;;;11.63;5.25;;;;;;;8.39;75.43;97702.66;5086325;28;20055;-62
2021/11/19 04:43:02;;;;;;;17.98;8.85;;;;;;;8.09;75.13;97672.72;5086009;28;20510;-64
2021/11/19 04:45:30;;;;;;;15.73;7.47;;;;;;;8.42;75.45;97706.69;5086232;28;20067;-63
2021/11/19 04:47:57;;;;;;;15.30;7.40;;;;;;;8.46;75.38;97702.09;5086012;28;20586;-63
2021/11/19 04:50:28;;;;;;;22.98;9.00;;;;;;;8.40;74.39;97681.38;5085947;28;20052;-63
2021/11/19 04:52:55;;;;;;;24.73;9.93;;;;;;;8.16;73.60;97686.75;5086102;28;20055;-63
2021/11/19 04:55:22;;;;;;;17.60;7.68;;;;;;;8.57;73.92;97706.84;5086152;28;20056;-63
2021/11/19 04:57:50;;;;;;;14.30;6.05;;;;;;;8.54;74.10;97721.34;5085778;28;20484;-62
2021/11/19 05:00:26;;;;;;;11.65;4.93;;;;;;;8.48;73.40;97721.88;5084730;28;20497;-64
2021/11/19 05:02:53;;;;;;;24.90;9.27;;;;;;;8.46;73.38;97735.22;5084216;28;20151;-64
2021/11/19 05:05:23;;;;;;;24.92;12.70;;;;;;;6.25;73.73;97343.84;5084445;28;20135;-64
2021/11/19 05:07:50;;;;;;;26.00;12.30;;;;;;;8.54;73.80;97724.09;5085654;28;20077;-63
2021/11/19 05:10:17;;;;;;;28.98;14.07;;;;;;;8.57;74.35;97722.59;5085582;28;20044;-63
2021/11/19 05:12:49;;;;;;;45.22;19.30;;;;;;;8.36;73.72;97730.13;5065885;28;20059;-63
2021/11/19 05:15:17;;;;;;;21.90;10.18;;;;;;;8.35;73.26;97734.03;5065800;28;20136;-63
2021/11/19 05:17:43;;;;;;;16.77;8.70;;;;;;;8.31;74.11;97735.84;5066053;28;20372;-62
2021/11/19 05:20:13;;;;;;;18.48;8.98;;;;;;;7.76;73.92;97644.31;5065376;28;20044;-62
2021/11/19 05:22:40;;;;;;;17.23;7.45;;;;;;;8.12;74.47;97707.91;5065134;28;20063;-63
2021/11/19 05:25:10;;;;;;;10.80;6.00;;;;;;;8.15;73.98;97734.81;5064219;28;20044;-65
2021/11/19 05:27:37;;;;;;;22.38;10.07;;;;;;;8.21;74.34;97733.47;5065049;28;20052;-62
2021/11/19 05:30:05;;;;;;;20.75;8.60;;;;;;;7.96;74.23;97712.44;5063777;28;20063;-62
2021/11/19 05:32:32;;;;;;;20.30;8.13;;;;;;;8.22;74.19;97748.91;5065035;28;20048;-62
2021/11/19 05:34:59;;;;;;;19.95;9.15;;;;;;;8.23;75.30;97745.84;5063864;28;20420;-62
2021/11/19 05:37:26;;;;;;;40.97;17.67;;;;;;;7.92;75.14;97715.03;5064788;28;20499;-62
2021/11/19 05:39:53;;;;;;;37.88;17.13;;;;;;;7.66;75.04;97671.16;5064739;28;20055;-63
2021/11/19 05:42:20;;;;;;;31.58;12.98;;;;;;;7.96;74.74;97704.16;5064705;28;20049;-63
2021/11/19 05:44:47;;;;;;;31.30;13.15;;;;;;;8.23;75.42;97753.31;5065107;28;20428;-64
2021/11/19 05:47:13;;;;;;;22.50;10.65;;;;;;;8.19;75.07;97747.59;5059095;28;20441;-63
2021/11/19 05:49:41;;;;;;;19.08;9.43;;;;;;;8.19;74.33;97774.41;5042639;28;20431;-63
2021/11/19 05:52:10;;;;;;;30.75;13.63;;;;;;;8.33;74.56;97744.63;5043329;28;20059;-63
2021/11/19 05:54:37;;;;;;;22.88;11.85;;;;;;;8.27;74.80;97737.66;5042839;28;20059;-64
2021/11/19 05:57:07;;;;;;;23.80;12.40;;;;;;;8.29;73.91;97743.66;5044040;28;20098;-64
2021/11/19 05:59:38;;;;;;;19.75;9.52;;;;;;;8.46;73.69;97737.97;5044115;28;20063;-64
2021/11/19 06:02:09;;;;;;;20.95;8.82;;;;;;;8.56;73.47;97737.56;5043086;28;20508;-64
2021/11/19 06:04:37;;;;;;;20.92;10.50;;;;;;;8.33;73.86;97719.78;5044336;28;20048;-64
2021/11/19 06:07:04;;;;;;;56.22;21.75;;;;;;;8.53;73.51;97732.72;5044046;28;20524;-63
2021/11/19 06:09:33;;;;;;;26.85;12.40;;;;;;;8.50;73.95;97708.56;5044092;28;20151;-62
2021/11/19 06:12:14;;;;;;;29.00;16.10;;;;;;;8.29;73.83;97680.19;5063328;28;20059;-63
2021/11/19 06:14:54;;;;;;;40.38;20.20;;;;;;;8.73;73.81;97742.91;5083432;28;20060;-63
2021/11/19 06:17:38;;;;;;;29.65;13.95;;;;;;;8.72;73.66;97744.88;5083270;28;20138;-63
2021/11/19 06:20:22;;;;;;;26.08;13.32;;;;;;;8.70;73.32;97740.81;5084186;28;20056;-62
2021/11/19 06:23:11;;;;;;;24.75;10.40;;;;;;;8.81;73.48;97736.47;5084221;28;20094;-63
2021/11/19 06:25:40;;;;;;;19.92;9.57;;;;;;;8.80;73.50;97743.94;5084433;28;20509;-63
2021/11/19 06:28:12;;;;;;;27.75;10.05;;;;;;;8.83;72.14;97737.75;5083296;28;20060;-63
2021/11/19 06:30:39;;;;;;;22.33;9.90;;;;;;;6.98;71.84;97409.13;5084259;28;20256;-64
2021/11/19 06:33:06;;;;;;;27.40;11.90;;;;;;;8.93;71.20;97714.41;5083540;28;20089;-63
2021/11/19 06:35:32;;;;;;;29.17;11.43;;;;;;;9.02;70.88;97726.16;5083932;28;20521;-63
2021/11/19 06:38:00;;;;;;;26.15;12.45;;;;;;;8.66;71.16;97662.56;5082390;28;20048;-63
2021/11/19 06:40:30;;;;;;;21.10;10.77;;;;;;;9.25;70.80;97746.69;5083771;28;20726;-63
2021/11/19 06:42:57;;;;;;;22.60;12.57;;;;;;;9.17;70.57;97751.16;5083640;28;20055;-63
2021/11/19 06:45:25;;;;;;;24.08;9.95;;;;;;;9.03;70.48;97722.25;5082632;28;20052;-63
2021/11/19 06:47:53;;;;;;;29.58;13.15;;;;;;;9.27;70.29;97758.19;5083456;28;20081;-65
2021/11/19 06:50:24;;;;;;;45.85;18.95;;;;;;;9.02;70.16;97754.63;5083809;28;20148;-64
2021/11/19 06:52:51;;;;;;;29.65;14.02;;;;;;;9.02;70.14;97739.97;5083785;28;20055;-63
2021/11/19 06:55:18;;;;;;;11.00;6.10;;;;;;;8.80;71.60;97734.88;5081569;28;20093;-63
2021/11/19 06:57:45;;;;;;;16.45;6.80;;;;;;;8.94;72.67;97746.41;5077420;28;20040;-64
2021/11/19 07:00:18;;;;;;;19.40;8.18;;;;;;;9.16;72.76;97748.75;5062611;28;20044;-66
2021/11/19 07:02:46;;;;;;;20.98;10.90;;;;;;;8.80;71.68;97652.00;5059893;28;20052;-64
2021/11/19 07:05:14;;;;;;;23.75;10.25;;;;;;;9.55;71.60;97734.22;5062757;28;20056;-64
2021/11/19 07:07:41;;;;;;;25.83;10.63;;;;;;;9.82;69.88;97739.03;5060938;28;20449;-64
2021/11/19 07:10:09;;;;;;;27.25;11.40;;;;;;;9.94;69.16;97741.78;5053755;28;20090;-64
2021/11/19 07:12:37;;;;;;;32.25;13.98;;;;;;;10.00;68.03;97740.41;5065098;28;20060;-60
2021/11/19 07:15:09;;;;;;;28.17;13.30;;;;;;;9.82;67.52;97708.63;5056612;28;20059;-62
2021/11/19 07:17:37;;;;;;;21.87;10.80;;;;;;;9.54;66.54;97663.50;5056474;28;20053;-62
2021/11/19 07:20:06;;;;;;;17.65;7.80;;;;;;;10.09;64.31;97738.34;5044337;28;20135;-62
2021/11/19 07:22:33;;;;;;;30.27;17.10;;;;;;;9.46;64.22;97630.44;5057701;28;20063;-63
2021/11/19 07:25:00;;;;;;;17.38;10.15;;;;;;;10.33;63.73;97743.81;5053561;28;20041;-62
2021/11/19 07:27:27;;;;;;;17.88;7.82;;;;;;;9.60;63.23;97631.66;5056427;28;20549;-61
2021/11/19 07:29:54;;;;;;;16.10;8.68;;;;;;;10.34;63.95;97750.94;5049275;28;20061;-62
2021/11/19 07:32:21;;;;;;;12.55;6.53;;;;;;;10.40;63.56;97752.28;5048042;28;20083;-61
2021/11/19 07:34:47;;;;;;;19.95;7.35;;;;;;;10.51;62.78;97755.38;5050395;28;20147;-62
2021/11/19 07:37:16;;;;;;;16.13;6.63;;;;;;;10.31;62.53;97690.72;5052495;28;20468;-62
2021/11/19 07:39:42;;;;;;;17.65;8.30;;;;;;;10.51;62.95;97738.78;5044628;28;20053;-65
2021/11/19 07:42:09;;;;;;;19.30;7.72;;;;;;;10.53;63.21;97731.72;5049946;28;20737;-62
2021/11/19 07:44:36;;;;;;;25.23;11.45;;;;;;;9.88;62.29;97646.31;5065998;28;20521;-65
2021/11/19 07:47:03;;;;;;;19.17;8.77;;;;;;;9.99;62.46;97650.22;5062393;28;20055;-62
2021/11/19 07:49:30;;;;;;;22.85;8.85;;;;;;;10.80;62.50;97745.88;5062168;28;20052;-61
2021/11/19 07:51:57;;;;;;;15.85;7.05;;;;;;;9.75;62.48;97603.28;5059649;28;20049;-63
2021/11/19 07:54:24;;;;;;;18.98;8.32;;;;;;;10.37;62.40;97700.38;5042339;28;20049;-72
2021/11/19 07:56:51;;;;;;;25.48;9.40;;;;;;;9.16;61.55;97513.81;5058365;28;20546;-64
2021/11/19 07:59:27;;;;;;;20.30;11.48;;;;;;;10.88;61.12;97745.72;5058777;28;20127;-67
2021/11/19 08:01:59;;;;;;;21.25;9.98;;;;;;;10.88;61.20;97747.69;5041614;28;20045;-63
2021/11/19 08:04:29;;;;;;;36.60;15.37;;;;;;;10.52;61.46;97719.03;5051283;28;20414;-61
2021/11/19 08:06:57;;;;;;;30.27;12.60;;;;;;;10.89;61.04;97752.09;5062551;28;20529;-60
2021/11/19 08:09:25;;;;;;;39.47;17.92;;;;;;;10.76;61.63;97756.06;5045752;28;20048;-63
2021/11/19 08:11:52;;;;;;;48.20;16.52;;;;;;;8.64;60.94;97413.56;5056807;28;20055;-62
2021/11/19 08:14:20;;;;;;;32.97;12.65;;;;;;;10.46;61.45;97814.59;5043664;28;20169;-68
2021/11/19 08:16:52;;;;;;;46.75;18.77;;;;;;;10.41;61.97;97736.50;5044033;28;20523;-62
2021/11/19 08:19:43;;;;;;;41.08;19.67;;;;;;;10.33;62.09;97709.75;5044926;28;20140;-61
2021/11/19 08:22:13;;;;;;;29.92;14.60;;;;;;;10.48;61.24;97753.28;5044157;28;20137;-63
2021/11/19 08:24:41;;;;;;;29.20;15.88;;;;;;;9.35;60.86;97557.41;5045860;28;20086;-62
2021/11/19 08:27:21;;;;;;;29.85;15.60;;;;;;;10.63;60.17;97750.59;5045413;28;20175;-62
2021/11/19 08:29:51;;;;;;;20.77;10.68;;;;;;;10.30;60.34;97702.97;5045058;28;20160;-61
2021/11/19 08:32:20;;;;;;;16.00;7.30;;;;;;;10.72;60.70;97750.44;5045807;28;20511;-62
2021/11/19 08:34:48;;;;;;;15.38;7.57;;;;;;;10.85;59.53;97743.66;5080263;28;20458;-62
2021/11/19 08:37:17;;;;;;;17.15;8.07;;;;;;;10.62;59.42;97710.19;5045957;28;20080;-64
2021/11/19 08:39:44;;;;;;;13.32;6.60;;;;;;;10.86;59.75;97750.03;5051618;28;20061;-64
2021/11/19 08:42:11;;;;;;;14.32;6.28;;;;;;;11.07;59.06;97736.72;5065853;28;20067;-65
2021/11/19 08:44:41;;;;;;;19.15;5.13;;;;;;;11.20;59.29;97732.69;5063263;28;20135;-66
2021/11/19 08:47:27;;;;;;;16.40;7.68;;;;;;;8.90;58.78;97339.34;5057015;28;20052;-64
2021/11/19 08:49:54;;;;;;;17.98;8.43;;;;;;;11.32;57.94;97730.63;5049441;28;20044;-60
2021/11/19 08:52:22;;;;;;;18.52;7.70;;;;;;;11.28;57.86;97690.13;5051238;28;20049;-59
2021/11/19 08:54:50;;;;;;;15.98;7.70;;;;;;;11.45;57.19;97685.00;5059587;28;20068;-63
2021/11/19 08:57:21;;;;;;;17.95;8.57;;;;;;;11.68;56.66;97715.69;5059466;28;20082;-60
2021/11/19 08:59:49;;;;;;;14.27;6.72;;;;;;;11.72;55.73;97661.06;5055801;28;20838;-61
2021/11/19 09:02:19;;;;;;;12.13;5.63;;;;;;;12.25;53.12;97710.22;5045653;28;20060;-62
2021/11/19 09:05:01;;;;;;;21.00;9.52;;;;;;;12.34;53.34;97716.38;5058670;28;20048;-61
2021/11/19 09:07:31;;;;;;;25.42;11.35;;;;;;;12.55;53.37;97716.81;5059780;28;20443;-63
2021/11/19 09:09:57;;;;;;;42.85;18.33;;;;;;;12.74;53.25;97714.00;5057517;28;20045;-61
2021/11/19 09:12:29;;;;;;;20.98;8.57;;;;;;;12.73;51.20;97686.56;5064534;28;20147;-61
2021/11/19 09:14:55;;;;;;;18.88;9.15;;;;;;;12.33;51.58;97609.19;5049453;28;20134;-62
2021/11/19 09:17:22;;;;;;;19.35;10.45;;;;;;;13.11;50.36;97706.78;5045250;28;20115;-64
2021/11/19 09:20:07;;;;;;;11.63;6.22;;;;;;;12.63;48.90;97667.75;5045146;28;20518;-66
2021/11/19 09:22:53;;;;;;;14.15;6.88;;;;;;;12.75;49.13;97701.72;5053721;28;20235;-62
2021/11/19 09:25:22;;;;;;;14.55;5.95;;;;;;;12.48;48.87;97665.84;5051177;28;20051;-66
2021/11/19 09:27:50;;;;;;;11.30;5.20;;;;;;;12.69;48.79;97700.44;5044874;28;20064;-65
2021/11/19 09:30:25;;;;;;;8.43;4.07;;;;;;;11.93;48.20;97619.91;5062679;28;20155;-63
2021/11/19 09:32:54;;;;;;;7.97;3.67;;;;;;;12.27;48.66;97688.44;5063834;28;20056;-66
2021/11/19 09:35:24;;;;;;;8.32;4.38;;;;;;;12.19;49.24;97686.69;5062667;28;20049;-61
2021/11/19 09:37:52;;;;;;;9.25;3.90;;;;;;;12.30;49.38;97687.72;5052410;28;20056;-62
2021/11/19 09:40:36;;;;;;;10.13;4.72;;;;;;;11.45;49.81;97562.94;5063613;28;20050;-64
2021/11/19 09:43:21;;;;;;;12.93;5.20;;;;;;;11.75;49.98;97627.03;5044682;28;20053;-65
2021/11/19 09:46:04;;;;;;;9.27;4.32;;;;;;;11.83;50.29;97662.91;5051939;28;20064;-65
2021/11/19 09:48:50;;;;;;;9.68;4.50;;;;;;;12.17;49.43;97672.38;5044106;28;20242;-65
2021/11/19 09:51:42;;;;;;;8.82;3.75;;;;;;;12.05;49.86;97658.63;5060525;28;20049;-66
2021/11/19 09:54:43;;;;;;;14.15;4.75;;;;;;;11.84;49.53;97614.56;5059202;28;20059;-64
2021/11/19 09:57:18;;;;;;;7.78;4.78;;;;;;;12.25;49.40;97651.88;5057274;28;20057;-61
2021/11/19 09:59:50;;;;;;;8.95;3.75;;;;;;;11.99;48.74;97587.91;5058561;28;20052;-63
2021/11/19 10:02:44;;;;;;;12.27;5.05;;;;;;;12.65;49.52;97632.03;5044206;28;20044;-61
2021/11/19 10:05:36;;;;;;;10.75;4.90;;;;;;;12.83;48.49;97622.03;5060045;28;21001;-63
2021/11/19 10:08:13;;;;;;;10.50;5.65;;;;;;;13.10;48.73;97612.59;5044847;28;20092;-63
2021/11/19 10:11:08;;;;;;;12.32;5.50;;;;;;;13.47;47.46;97608.00;5046097;28;20056;-63
2021/11/19 10:14:13;;;;;;;9.88;5.88;;;;;;;13.87;46.04;97604.56;5042913;28;20061;-65
2021/11/19 10:17:14;;;;;;;9.35;4.57;;;;;;;13.81;45.29;97606.91;5043518;28;20061;-67
2021/11/19 10:20:11;;;;;;;9.32;5.20;;;;;;;14.05;44.73;97605.63;5059726;28;21315;-63
2021/11/19 10:22:46;;;;;;;9.25;4.97;;;;;;;14.12;44.63;97594.53;5059532;28;20166;-67
2021/11/19 10:25:25;;;;;;;7.20;3.90;;;;;;;12.50;47.62;97600.41;5050336;28;20055;-64
2021/11/19 10:27:55;;;;;;;7.47;4.07;;;;;;;12.34;48.45;97577.47;5073331;28;20465;-64
2021/11/19 10:30:50;;;;;;;9.43;4.22;;;;;;;9.78;47.24;97099.09;5059403;28;20499;-63
2021/11/19 10:33:25;;;;;;;9.23;4.60;;;;;;;12.27;46.65;97437.63;5054098;28;20550;-63
2021/11/19 10:36:09;;;;;;;9.43;4.03;;;;;;;13.55;46.04;97577.13;5060667;28;20740;-67
2021/11/19 10:39:10;;;;;;;9.50;4.47;;;;;;;12.57;48.10;97581.06;5051545;28;20052;-64
2021/11/19 10:42:09;;;;;;;8.50;4.53;;;;;;;12.80;49.09;97576.31;5047095;28;20056;-62
2021/11/19 10:44:57;;;;;;;9.43;4.45;;;;;;;11.75;50.14;97561.25;5024020;28;20056;-65
2021/11/19 10:47:42;;;;;;;9.65;3.90;;;;;;;12.19;49.66;97570.03;5055580;28;20196;-62
2021/11/19 10:50:27;;;;;;;8.75;4.28;;;;;;;12.52;48.06;97561.91;5054399;28;20396;-63
2021/11/19 10:53:23;;;;;;;9.50;4.47;;;;;;;12.39;48.35;97568.84;5060955;28;20060;-62
2021/11/19 10:56:27;;;;;;;9.07;3.83;;;;;;;12.74;47.97;97563.09;5058849;28;20227;-63
2021/11/19 10:58:56;;;;;;;;;;;;;;;12.82;48.22;97560.06;5051219;28;20056;-59
2021/11/19 11:02:02;;;;;;;8.60;4.32;;;;;;;12.57;48.53;97547.72;5043484;28;19935;-64
2021/11/19 11:07:30;;;;;;;12.45;5.63;;;;;;;12.69;48.71;97547.53;5060955;28;20219;-65
2021/11/19 11:09:57;;;;;;;12.23;5.25;;;;;;;12.84;48.07;97551.34;5047583;28;20049;-68
2021/11/19 11:12:42;;;;;;;10.02;4.13;;;;;;;12.68;47.58;97548.69;5044487;28;20045;-69
2021/11/19 11:15:38;;;;;;;8.55;5.28;;;;;;;12.09;49.98;97552.00;5045352;28;20052;-66
2021/11/19 11:18:10;;;;;;;7.65;4.03;;;;;;;11.67;49.66;97536.47;5051664;28;20040;-68
2021/11/19 11:20:52;;;;;;;8.43;3.75;;;;;;;12.04;49.06;97530.06;5060126;28;20053;-64
2021/11/19 11:23:28;;;;;;;7.80;3.83;;;;;;;11.85;49.22;97532.09;5042060;28;20048;-69
2021/11/19 11:26:07;;;;;;;6.63;3.28;;;;;;;11.70;50.59;97535.75;5051503;28;20044;-63
2021/11/19 11:28:45;;;;;;;6.97;3.67;;;;;;;12.11;49.65;97526.63;5058964;28;20056;-62
2021/11/19 11:31:35;;;;;;;7.50;3.63;;;;;;;12.22;48.53;97519.31;5055243;28;20053;-67
2021/11/19 11:34:16;;;;;;;10.40;4.20;;;;;;;11.83;49.61;97518.59;5057939;28;20603;-59
2021/11/19 11:36:53;;;;;;;13.98;6.50;;;;;;;11.41;49.09;97459.41;5060696;28;20052;-66
2021/11/19 11:39:34;;;;;;;11.70;5.07;;;;;;;11.08;49.95;97508.22;5058493;28;20047;-61
2021/11/19 11:42:06;;;;;;;11.95;6.03;;;;;;;11.53;49.87;97513.94;5058863;28;20052;-61
2021/11/19 11:44:37;;;;;;;12.38;7.78;;;;;;;11.85;48.88;97498.78;5054431;28;20063;-61
2021/11/19 11:47:06;;;;;;;15.00;6.28;;;;;;;11.22;48.35;97398.44;5061442;28;20051;-60
2021/11/19 11:49:53;;;;;;;11.13;5.65;;;;;;;11.68;48.53;97504.78;5060339;28;20053;-59
2021/11/19 11:52:49;;;;;;;12.70;5.90;;;;;;;11.22;49.93;97494.69;5055452;28;20048;-62
2021/11/19 11:55:25;;;;;;;11.02;5.22;;;;;;;10.94;50.13;97491.28;5057143;28;20066;-62
2021/11/19 11:58:00;;;;;;;11.57;6.30;;;;;;;11.00;51.34;97500.91;5065199;28;20056;-62
2021/11/19 12:00:50;;;;;;;8.00;4.65;;;;;;;10.83;50.90;97495.78;5066950;28;20059;-62